Time,TemperatureF,DewpointF,PressureIn,WindDirection,WindDirectionDegrees,WindSpeedMPH,WindSpeedGustMPH,Humidity,HourlyPrecipIn,Conditions,Clouds,dailyrainin,SoftwareType,DateUTC
2013-03-10 00:03:00,37.4,32.1,30.06,WNW,292,0.0,-999.0,81,-99.99,,,0.00,Acu-Link.com,2013-03-10 05:03:00,
2013-03-10 00:19:00,37.4,32.4,30.05,NNE,22,0.0,-999.0,82,-99.99,,,0.00,Acu-Link.com,2013-03-10 05:19:00,
2013-03-10 00:34:00,37.4,32.4,30.05,NNE,22,0.0,-999.0,82,-99.99,,,0.00,Acu-Link.com,2013-03-10 05:34:00,
2013-03-10 00:49:00,39.2,33.9,30.05,East,90,0.0,-999.0,81,-99.99,,,0.00,Acu-Link.com,2013-03-10 05:49:00,
2013-03-10 01:04:00,41.0,35.3,30.04,East,90,0.0,-999.0,80,-99.99,,,0.00,Acu-Link.com,2013-03-10 06:04:00,
2013-03-10 01:20:00,41.0,34.7,30.04,East,90,0.0,-999.0,78,-99.99,,,0.00,Acu-Link.com,2013-03-10 06:20:00,
2013-03-10 01:35:00,41.0,34.7,30.04,NNE,22,0.0,-999.0,78,-99.99,,,0.00,Acu-Link.com,2013-03-10 06:35:00,
2013-03-10 01:50:00,41.0,34.4,30.03,WNW,292,0.0,-999.0,77,-99.99,,,0.00,Acu-Link.com,2013-03-10 06:50:00,
2013-03-10 03:05:00,42.8,36.1,30.03,WNW,292,0.0,-999.0,77,-99.99,,,0.00,Acu-Link.com,2013-03-10 07:05:00,
2013-03-10 03:21:00,42.8,35.8,30.02,WNW,292,0.0,-999.0,76,-99.99,,,0.00,Acu-Link.com,2013-03-10 07:21:00,
2013-03-10 03:36:00,42.8,35.8,30.02,WNW,292,0.0,-999.0,76,-99.99,,,0.00,Acu-Link.com,2013-03-10 07:36:00,
2013-03-10 03:51:00,42.8,35.8,30.02,WNW,292,0.0,-999.0,76,-99.99,,,0.00,Acu-Link.com,2013-03-10 07:51:00,
2013-03-10 04:07:00,41.0,34.4,30.02,WNW,292,0.0,-999.0,77,-99.99,,,0.00,Acu-Link.com,2013-03-10 08:07:00,
2013-03-10 04:22:00,41.0,35.6,30.02,NNE,22,0.0,-999.0,81,-99.99,,,0.00,Acu-Link.com,2013-03-10 08:22:00,
2013-03-10 04:37:00,39.2,34.2,30.02,NNE,22,0.0,-999.0,82,-99.99,,,0.00,Acu-Link.com,2013-03-10 08:37:00,
2013-03-10 04:52:00,37.4,33.0,30.02,NNE,22,1.1,-999.0,84,-99.99,,,0.00,Acu-Link.com,2013-03-10 08:52:00,
2013-03-10 05:08:00,37.4,33.3,30.02,NNE,22,0.0,-999.0,85,-99.99,,,0.00,Acu-Link.com,2013-03-10 09:08:00,
2013-03-10 05:23:00,37.4,33.3,30.02,NNE,22,0.0,-999.0,85,-99.99,,,0.00,Acu-Link.com,2013-03-10 09:23:00,
2013-03-10 05:38:00,37.4,33.9,30.03,NNE,22,0.0,-999.0,87,-99.99,,,0.00,Acu-Link.com,2013-03-10 09:38:00,
2013-03-10 05:53:00,37.4,33.6,30.03,NNW,337,0.0,-999.0,86,-99.99,,,0.00,Acu-Link.com,2013-03-10 09:53:00,
2013-03-10 06:08:00,39.2,35.1,30.03,NNE,22,0.0,-999.0,85,-99.99,,,0.00,Acu-Link.com,2013-03-10 10:08:00,
2013-03-10 06:23:00,39.2,34.8,30.03,NNE,22,0.0,-999.0,84,-99.99,,,0.00,Acu-Link.com,2013-03-10 10:23:00,
2013-03-10 06:39:00,41.0,36.2,30.02,NNW,337,0.0,-999.0,83,-99.99,,,0.00,Acu-Link.com,2013-03-10 10:39:00,
2013-03-10 06:54:00,41.0,36.2,30.02,NNW,337,0.0,-999.0,83,-99.99,,,0.00,Acu-Link.com,2013-03-10 10:54:00,
2013-03-10 07:09:00,39.2,34.5,30.02,NNW,337,0.0,-999.0,83,-99.99,,,0.00,Acu-Link.com,2013-03-10 11:09:00,
2013-03-10 07:25:00,37.4,33.0,30.03,NNW,337,0.0,-999.0,84,-99.99,,,0.00,Acu-Link.com,2013-03-10 11:25:00,
2013-03-10 07:40:00,37.4,33.9,30.03,NNE,22,0.0,-999.0,87,-99.99,,,0.00,Acu-Link.com,2013-03-10 11:40:00,
2013-03-10 07:55:00,37.4,33.6,30.04,NNW,337,0.0,-999.0,86,-99.99,,,0.00,Acu-Link.com,2013-03-10 11:55:00,
2013-03-10 08:10:00,35.6,31.8,30.04,NE,45,0.0,-999.0,86,-99.99,,,0.00,Acu-Link.com,2013-03-10 12:10:00,
2013-03-10 08:26:00,37.4,33.6,30.05,NE,45,0.0,-999.0,86,-99.99,,,0.00,Acu-Link.com,2013-03-10 12:26:00,
2013-03-10 08:41:00,39.2,34.2,30.05,ENE,67,0.0,-999.0,82,-99.99,,,0.00,Acu-Link.com,2013-03-10 12:41:00,
2013-03-10 08:56:00,44.6,37.8,30.06,East,90,0.0,-999.0,77,-99.99,,,0.00,Acu-Link.com,2013-03-10 12:56:00,
2013-03-10 09:12:00,50.0,35.4,30.06,NNE,22,1.6,-999.0,57,-99.99,,,0.00,Acu-Link.com,2013-03-10 13:12:00,
2013-03-10 09:27:00,53.6,38.3,30.06,South,180,1.6,-999.0,56,-99.99,,,0.00,Acu-Link.com,2013-03-10 13:27:00,
2013-03-10 09:42:00,53.6,35.4,30.07,SSW,202,2.7,-999.0,50,-99.99,,,0.00,Acu-Link.com,2013-03-10 13:42:00,
2013-03-10 09:57:00,55.4,36.0,30.07,South,180,3.1,-999.0,48,-99.99,,,0.00,Acu-Link.com,2013-03-10 13:57:00,
2013-03-10 10:12:00,57.2,36.6,30.07,South,180,2.0,-999.0,46,-99.99,,,0.00,Acu-Link.com,2013-03-10 14:12:00,
2013-03-10 10:27:00,59.0,38.3,30.07,SE,135,2.0,-999.0,46,-99.99,,,0.00,Acu-Link.com,2013-03-10 14:27:00,
2013-03-10 10:43:00,55.4,35.5,30.07,South,180,2.7,-999.0,47,-99.99,,,0.00,Acu-Link.com,2013-03-10 14:43:00,
2013-03-10 10:58:00,60.8,37.0,30.07,South,180,3.6,-999.0,41,-99.99,,,0.00,Acu-Link.com,2013-03-10 14:58:00,
2013-03-10 11:13:00,60.8,37.0,30.07,SSE,157,3.6,-999.0,41,-99.99,,,0.00,Acu-Link.com,2013-03-10 15:13:00,
2013-03-10 11:28:00,60.8,39.9,51.17,SSE,157,2.0,-999.0,46,-99.99,,,0.00,Acu-Link.com,2013-03-10 15:28:00,
2013-03-10 11:43:00,64.4,41.4,30.07,West,270,1.6,-999.0,43,-99.99,,,0.00,Acu-Link.com,2013-03-10 15:43:00,
2013-03-10 11:58:00,62.6,39.8,30.07,West,270,3.1,-999.0,43,-99.99,,,0.00,Acu-Link.com,2013-03-10 15:58:00,
2013-03-10 12:14:00,60.8,39.9,30.06,SW,225,3.6,-999.0,46,-99.99,,,0.00,Acu-Link.com,2013-03-10 16:14:00,
2013-03-10 12:29:00,59.0,37.1,30.06,SSE,157,3.6,-999.0,44,-99.99,,,0.00,Acu-Link.com,2013-03-10 16:29:00,
2013-03-10 12:44:00,60.8,38.8,30.05,SW,225,1.1,-999.0,44,-99.99,,,0.00,Acu-Link.com,2013-03-10 16:44:00,
2013-03-10 13:00:00,62.6,38.6,30.04,South,180,3.1,-999.0,41,-99.99,,,0.00,Acu-Link.com,2013-03-10 17:00:00,
2013-03-10 13:15:00,62.6,39.8,30.04,West,270,3.1,-999.0,43,-99.99,,,0.00,Acu-Link.com,2013-03-10 17:15:00,
2013-03-10 13:30:00,62.6,40.4,30.03,WNW,292,2.0,-999.0,44,-99.99,,,0.00,Acu-Link.com,2013-03-10 17:30:00,
2013-03-10 13:45:00,64.4,38.2,30.02,NW,315,2.0,-999.0,38,-99.99,,,0.00,Acu-Link.com,2013-03-10 17:45:00,
2013-03-10 14:00:00,62.6,37.3,30.01,SSW,202,2.7,-999.0,39,-99.99,,,0.00,Acu-Link.com,2013-03-10 18:00:00,
2013-03-10 14:16:00,62.6,37.9,30.01,South,180,2.7,-999.0,40,-99.99,,,0.00,Acu-Link.com,2013-03-10 18:16:00,
2013-03-10 14:31:00,64.4,38.2,30.00,West,270,2.7,-999.0,38,-99.99,,,0.00,Acu-Link.com,2013-03-10 18:31:00,
2013-03-10 14:46:00,64.4,36.9,29.99,South,180,4.0,-999.0,36,-99.99,,,0.00,Acu-Link.com,2013-03-10 18:46:00,
2013-03-10 15:02:00,66.2,41.2,29.98,SW,225,2.7,-999.0,40,-99.99,,,0.00,Acu-Link.com,2013-03-10 19:02:00,
2013-03-10 15:17:00,66.2,41.8,29.98,WNW,292,3.1,-999.0,41,-99.99,,,0.00,Acu-Link.com,2013-03-10 19:17:00,
2013-03-10 15:32:00,66.2,37.7,29.97,South,180,2.7,-999.0,35,-99.99,,,0.00,Acu-Link.com,2013-03-10 19:32:00,
2013-03-10 15:47:00,68.0,41.4,29.97,SW,225,1.1,-999.0,38,-99.99,,,0.00,Acu-Link.com,2013-03-10 19:47:00,
2013-03-10 16:03:00,68.0,39.3,29.97,West,270,2.0,-999.0,35,-99.99,,,0.00,Acu-Link.com,2013-03-10 20:03:00,
2013-03-10 16:18:00,68.0,39.3,29.97,SSW,202,3.6,-999.0,35,-99.99,,,0.00,Acu-Link.com,2013-03-10 20:18:00,
2013-03-10 16:33:00,68.0,38.6,29.97,South,180,2.7,-999.0,34,-99.99,,,0.00,Acu-Link.com,2013-03-10 20:33:00,
2013-03-10 16:48:00,71.6,36.8,29.96,WNW,292,0.0,-999.0,28,-99.99,,,0.00,Acu-Link.com,2013-03-10 20:48:00,
2013-03-10 17:04:00,69.8,38.6,29.96,NW,315,2.0,-999.0,32,-99.99,,,0.00,Acu-Link.com,2013-03-10 21:04:00,
2013-03-10 17:19:00,66.2,37.0,29.96,SW,225,2.0,-999.0,34,-99.99,,,0.00,Acu-Link.com,2013-03-10 21:19:00,
2013-03-10 17:34:00,66.2,35.5,29.95,SSE,157,2.0,-999.0,32,-99.99,,,0.00,Acu-Link.com,2013-03-10 21:34:00,
2013-03-10 17:50:00,68.0,37.8,29.95,SSW,202,2.0,-999.0,33,-99.99,,,0.00,Acu-Link.com,2013-03-10 21:50:00,
2013-03-10 18:05:00,64.4,35.4,29.95,SSW,202,3.1,-999.0,34,-99.99,,,0.00,Acu-Link.com,2013-03-10 22:05:00,
2013-03-10 18:20:00,64.4,37.6,29.95,South,180,1.6,-999.0,37,-99.99,,,0.00,Acu-Link.com,2013-03-10 22:20:00,
2013-03-10 18:36:00,62.6,36.6,29.94,East,90,1.6,-999.0,38,-99.99,,,0.00,Acu-Link.com,2013-03-10 22:36:00,
2013-03-10 18:51:00,62.6,37.9,29.94,SSW,202,1.1,-999.0,40,-99.99,,,0.00,Acu-Link.com,2013-03-10 22:51:00,
2013-03-10 19:21:00,60.8,37.0,29.95,ENE,67,1.6,-999.0,41,-99.99,,,0.00,Acu-Link.com,2013-03-10 23:21:00,
2013-03-10 19:36:00,59.0,37.7,29.95,SE,135,1.1,-999.0,45,-99.99,,,0.00,Acu-Link.com,2013-03-10 23:36:00,
2013-03-10 19:52:00,55.4,35.5,29.96,NNE,22,0.0,-999.0,47,-99.99,,,0.00,Acu-Link.com,2013-03-10 23:52:00,
2013-03-10 20:07:00,55.4,37.1,29.96,NNE,22,1.1,-999.0,50,-99.99,,,0.00,Acu-Link.com,2013-03-11 00:07:00,
2013-03-10 20:22:00,53.6,36.4,29.96,NNE,22,0.0,-999.0,52,-99.99,,,0.00,Acu-Link.com,2013-03-11 00:22:00,
2013-03-10 20:37:00,51.8,35.7,29.96,NNE,22,0.0,-999.0,54,-99.99,,,0.00,Acu-Link.com,2013-03-11 00:37:00,
2013-03-10 21:08:00,51.8,37.5,29.97,NE,45,0.0,-999.0,58,-99.99,,,0.00,Acu-Link.com,2013-03-11 01:08:00,
2013-03-10 21:23:00,50.0,35.4,29.97,NE,45,1.1,-999.0,57,-99.99,,,0.00,Acu-Link.com,2013-03-11 01:23:00,
2013-03-10 21:39:00,50.0,35.8,29.98,East,90,0.0,-999.0,58,-99.99,,,0.00,Acu-Link.com,2013-03-11 01:39:00,
2013-03-10 21:54:00,50.0,37.9,29.98,East,90,0.0,-999.0,63,-99.99,,,0.00,Acu-Link.com,2013-03-11 01:54:00,
2013-03-10 22:09:00,48.2,35.8,29.98,NNE,22,0.0,-999.0,62,-99.99,,,0.00,Acu-Link.com,2013-03-11 02:09:00,
2013-03-10 22:24:00,46.4,34.5,29.98,NNW,337,0.0,-999.0,63,-99.99,,,0.00,Acu-Link.com,2013-03-11 02:24:00,
2013-03-10 22:55:00,51.8,37.5,29.97,SW,225,0.0,-999.0,58,-99.99,,,0.00,Acu-Link.com,2013-03-11 02:55:00,
2013-03-10 23:10:00,50.0,36.2,29.98,SSW,202,1.6,-999.0,59,-99.99,,,0.00,Acu-Link.com,2013-03-11 03:10:00,
2013-03-10 23:25:00,50.0,35.8,29.97,East,90,1.6,-999.0,58,-99.99,,,0.00,Acu-Link.com,2013-03-11 03:25:00,
2013-03-10 23:40:00,50.0,35.8,29.97,South,180,1.1,-999.0,58,-99.99,,,0.00,Acu-Link.com,2013-03-11 03:40:00,
2013-03-10 23:55:00,50.0,35.8,29.97,SE,135,2.0,-999.0,58,-99.99,,,0.00,Acu-Link.com,2013-03-11 03:55:00,